Time;durP1;ratioP1;P1;durP2;ratioP2;P2;SDS_P1;SDS_P2;PMS_P1;PMS_P2;Temp;Humidity;BMP_temperature;BMP_pressure;BME280_temperature;BME280_humidity;BME280_pressure;Samples;Min_cycle;Max_cycle;Signal;HPM_P1;HPM_P2
2022/11/12 00:00:31;;;;;;;26.60;15.35;;;;;;;9.75;84.76;101492.56;4453030;32;34939;-74
2022/11/12 00:03:16;;;;;;;27.62;15.25;;;;;;;10.00;81.79;101497.87;4452874;32;34406;-74
2022/11/12 00:06:02;;;;;;;30.08;14.50;;;;;;;9.57;81.46;101500.72;4452514;32;33866;-74
2022/11/12 00:08:48;;;;;;;25.27;14.27;;;;;;;10.39;78.20;101492.19;4433792;32;33789;-74
2022/11/12 00:11:34;;;;;;;23.33;14.23;;;;;;;9.65;80.34;101501.31;4449536;32;34857;-74
2022/11/12 00:14:20;;;;;;;23.98;13.45;;;;;;;10.15;78.94;101492.94;4452550;32;33779;-74
2022/11/12 00:17:06;;;;;;;21.73;13.88;;;;;;;9.98;78.99;101487.41;4452585;32;34426;-75
2022/11/12 00:19:52;;;;;;;18.87;12.60;;;;;;;10.34;78.09;101485.75;4452625;32;33838;-75
2022/11/12 00:22:38;;;;;;;20.37;12.60;;;;;;;10.54;76.69;101478.53;4454120;32;34555;-74
2022/11/12 00:25:24;;;;;;;24.20;13.45;;;;;;;10.85;75.18;101478.09;4451246;32;34418;-74
2022/11/12 00:28:10;;;;;;;19.55;12.32;;;;;;;10.73;74.33;101471.25;4451766;32;33895;-74
2022/11/12 00:30:56;;;;;;;23.85;13.57;;;;;;;11.00;72.58;101467.09;4437225;32;33707;-75
2022/11/12 00:33:42;;;;;;;23.92;14.00;;;;;;;11.01;72.67;101457.66;4449731;32;34760;-75
2022/11/12 00:36:28;;;;;;;20.02;12.68;;;;;;;10.96;73.07;101472.88;4450436;32;32889;-74
2022/11/12 00:39:13;;;;;;;21.98;12.82;;;;;;;10.58;74.88;101480.53;4450425;32;34344;-75
2022/11/12 00:41:59;;;;;;;21.48;13.02;;;;;;;10.24;75.89;101483.25;4453301;32;35694;-75
2022/11/12 00:44:45;;;;;;;22.40;13.75;;;;;;;10.68;74.95;101467.47;4444299;32;33822;-74
2022/11/12 00:47:31;;;;;;;24.23;15.02;;;;;;;10.70;74.74;101465.88;4446614;32;34593;-75
2022/11/12 00:50:17;;;;;;;24.37;15.95;;;;;;;10.57;75.47;101460.63;4449306;32;33645;-74
2022/11/12 00:53:02;;;;;;;29.75;17.10;;;;;;;10.31;76.78;101449.25;4449192;32;34745;-74
2022/11/12 00:55:48;;;;;;;24.95;15.52;;;;;;;10.30;76.81;101441.38;4447801;32;34360;-74
2022/11/12 00:58:35;;;;;;;28.35;16.70;;;;;;;10.16;78.14;101449.03;4447016;32;33173;-74
2022/11/12 01:01:21;;;;;;;27.30;17.02;;;;;;;10.06;78.55;101458.59;4452495;32;34857;-74
2022/11/12 01:04:07;;;;;;;29.35;18.60;;;;;;;9.96;79.20;101454.44;4433597;32;33735;-74
2022/11/12 01:06:53;;;;;;;29.27;18.25;;;;;;;9.58;81.50;101455.06;4454195;32;35578;-74
2022/11/12 01:09:39;;;;;;;33.53;18.75;;;;;;;8.44;88.77;101443.69;4461512;32;33811;-74
2022/11/12 01:12:25;;;;;;;30.33;16.95;;;;;;;8.00;92.56;101447.06;4454994;32;34015;-74
2022/11/12 01:15:11;;;;;;;31.23;18.25;;;;;;;8.06;93.84;101450.16;4447149;32;34192;-74
2022/11/12 01:17:57;;;;;;;36.25;20.15;;;;;;;8.83;89.88;101443.37;4464270;32;34179;-74
2022/11/12 01:20:43;;;;;;;33.40;18.08;;;;;;;9.01;88.32;101437.81;4462045;32;33536;-74
2022/11/12 01:23:31;;;;;;;34.75;19.95;;;;;;;9.25;86.68;101438.78;4448098;32;33660;-74
2022/11/12 01:26:19;;;;;;;28.70;17.17;;;;;;;9.49;85.63;101433.69;4453216;32;33651;-74
2022/11/12 01:29:05;;;;;;;28.55;17.00;;;;;;;8.68;89.21;101424.09;4445181;32;32711;-74
2022/11/12 01:31:51;;;;;;;30.05;17.95;;;;;;;8.14;95.40;101422.38;4456409;32;33699;-74
2022/11/12 01:34:37;;;;;;;34.60;19.62;;;;;;;7.97;95.48;101426.16;4457615;32;33635;-74
2022/11/12 01:37:22;;;;;;;34.55;21.00;;;;;;;7.49;100.00;101429.09;4458195;32;34694;-74
2022/11/12 01:40:09;;;;;;;36.47;19.73;;;;;;;7.47;100.00;101425.50;4452451;32;34101;-74
2022/11/12 01:42:54;;;;;;;31.95;20.20;;;;;;;7.88;99.97;101416.03;4452007;32;33789;-74
2022/11/12 01:45:44;;;;;;;36.92;18.73;;;;;;;8.93;93.04;101433.75;4447857;32;34023;-74
2022/11/12 01:48:37;;;;;;;35.47;19.52;;;;;;;9.62;88.43;101437.31;4435911;32;33896;-74
2022/11/12 01:51:27;;;;;;;31.35;18.75;;;;;;;10.06;86.32;101424.94;4452836;32;34260;-74
2022/11/12 01:54:14;;;;;;;32.17;18.33;;;;;;;10.31;84.65;101422.47;4424802;32;32118;-74
2022/11/12 01:57:01;;;;;;;29.08;19.00;;;;;;;10.57;82.06;101422.63;4451662;32;34007;-74
2022/11/12 01:59:48;;;;;;;32.53;18.98;;;;;;;10.46;81.35;101414.91;4441548;32;34089;-74
2022/11/12 02:02:35;;;;;;;38.65;21.45;;;;;;;8.89;87.90;101422.28;4433702;32;34257;-74
2022/11/12 02:05:22;;;;;;;35.33;20.45;;;;;;;8.48;91.55;101416.44;4459172;32;33782;-74
2022/11/12 02:08:09;;;;;;;36.05;21.05;;;;;;;8.02;94.88;101429.16;4450020;32;32958;-74
2022/11/12 02:10:55;;;;;;;34.97;21.20;;;;;;;8.40;93.85;101419.31;4453226;32;33773;-74
2022/11/12 02:13:57;;;;;;;40.25;21.37;;;;;;;8.55;92.26;101418.75;4457599;32;32853;-74
2022/11/12 02:16:44;;;;;;;35.30;21.10;;;;;;;8.34;93.16;101418.78;4433836;32;34381;-74
2022/11/12 02:19:30;;;;;;;34.13;20.77;;;;;;;8.51;92.75;101416.69;4462493;32;34691;-74
2022/11/12 02:22:16;;;;;;;35.25;21.77;;;;;;;8.31;93.35;101399.59;4451111;32;33773;-74
2022/11/12 02:25:01;;;;;;;42.10;23.27;;;;;;;7.92;95.78;101401.69;4463946;32;34124;-74
2022/11/12 02:27:53;;;;;;;41.35;23.05;;;;;;;7.58;98.17;101398.03;4454237;32;33895;-74
2022/11/12 02:30:42;;;;;;;39.47;23.35;;;;;;;7.47;99.27;101399.72;4449154;32;33848;-74
2022/11/12 02:33:28;;;;;;;37.75;21.98;;;;;;;9.01;89.47;101396.47;4448344;32;33855;-74
2022/11/12 02:36:13;;;;;;;37.92;22.25;;;;;;;8.62;90.91;101396.09;4447930;32;33810;-74
2022/11/12 02:38:59;;;;;;;36.60;22.17;;;;;;;9.22;86.06;101397.22;4449844;32;33835;-74
2022/11/12 02:41:45;;;;;;;43.17;25.27;;;;;;;9.28;84.85;101401.94;4454198;32;34523;-74
2022/11/12 02:44:31;;;;;;;36.72;23.87;;;;;;;9.11;85.35;101406.72;4451130;32;33744;-74
2022/11/12 02:47:17;;;;;;;42.47;24.92;;;;;;;9.40;83.63;101408.03;4447515;32;35795;-74
2022/11/12 02:50:03;;;;;;;45.35;26.65;;;;;;;8.77;85.31;101411.91;4458389;32;34172;-74
2022/11/12 02:52:49;;;;;;;48.92;26.25;;;;;;;9.00;85.54;101410.16;4446840;32;33745;-74
2022/11/12 02:55:35;;;;;;;44.78;27.30;;;;;;;8.87;86.29;101408.34;4437612;32;32468;-74
2022/11/12 02:58:21;;;;;;;44.75;26.00;;;;;;;8.49;87.08;101418.25;4456912;32;32722;-74
2022/11/12 03:01:07;;;;;;;40.33;23.75;;;;;;;9.03;86.89;101416.47;4450597;32;33821;-75
2022/11/12 03:03:53;;;;;;;44.55;26.52;;;;;;;9.06;85.54;101415.81;4435969;32;33350;-75
2022/11/12 03:06:39;;;;;;;45.85;26.85;;;;;;;9.36;84.01;101406.87;4458991;32;33967;-74
2022/11/12 03:09:26;;;;;;;48.80;27.98;;;;;;;9.39;83.90;101407.13;4453783;32;34776;-74
2022/11/12 03:12:11;;;;;;;37.28;22.75;;;;;;;9.40;84.18;101408.03;4453558;32;33848;-74
2022/11/12 03:14:57;;;;;;;43.17;25.48;;;;;;;9.14;84.67;101412.13;4450436;32;33801;-74
2022/11/12 03:17:43;;;;;;;39.60;23.80;;;;;;;9.60;83.19;101415.59;4439534;32;34677;-74
2022/11/12 03:20:29;;;;;;;43.08;24.63;;;;;;;8.83;87.02;101407.19;4453984;32;35052;-74
2022/11/12 03:23:15;;;;;;;41.83;25.42;;;;;;;9.51;83.89;101406.25;4454112;32;33696;-74
2022/11/12 03:26:02;;;;;;;41.88;25.30;;;;;;;9.42;83.12;101407.34;4452924;32;34062;-74
2022/11/12 03:28:50;;;;;;;41.47;24.33;;;;;;;9.73;82.22;101404.47;4449668;32;34972;-74
2022/11/12 03:31:36;;;;;;;41.58;24.15;;;;;;;9.37;82.90;101407.81;4452709;32;33959;-74
2022/11/12 03:34:21;;;;;;;39.42;22.70;;;;;;;8.05;90.69;101409.66;4452640;32;33592;-74
2022/11/12 03:37:08;;;;;;;39.13;23.12;;;;;;;7.86;92.16;101417.56;4454250;32;33991;-74
2022/11/12 03:39:54;;;;;;;41.95;23.35;;;;;;;7.62;94.06;101420.72;4454381;32;34017;-74
2022/11/12 03:42:47;;;;;;;39.63;22.73;;;;;;;7.29;96.51;101415.47;4450792;32;34961;-74
2022/11/12 03:45:33;;;;;;;41.37;22.77;;;;;;;7.36;96.14;101413.37;4450594;32;34408;-74
2022/11/12 03:48:18;;;;;;;36.47;21.83;;;;;;;8.51;89.70;101419.28;4441843;32;33771;-74
2022/11/12 03:51:04;;;;;;;34.22;20.23;;;;;;;8.96;87.67;101418.47;4453949;32;33948;-74
2022/11/12 03:53:50;;;;;;;38.78;21.90;;;;;;;9.67;83.05;101414.34;4454276;32;34180;-74
2022/11/12 03:56:36;;;;;;;40.22;21.92;;;;;;;8.84;85.01;101419.31;4453278;32;33792;-74
2022/11/12 03:59:21;;;;;;;37.05;21.52;;;;;;;7.73;92.00;101424.19;4449424;32;34675;-74
2022/11/12 04:02:13;;;;;;;38.63;21.45;;;;;;;8.29;90.51;101425.28;4448794;32;32799;-74
2022/11/12 04:11:13;;;;;;;31.50;18.55;;;;;;;9.68;81.95;101423.00;4453382;32;33977;-74
2022/11/12 04:13:59;;;;;;;30.15;18.08;;;;;;;9.93;79.42;101429.22;4453161;32;34576;-74
2022/11/12 04:22:53;;;;;;;31.42;19.00;;;;;;;8.08;86.30;101415.03;4453149;32;33475;-74
2022/11/12 04:30:14;;;;;;;35.65;21.30;;;;;;;8.11;86.87;101410.91;4440516;32;33672;-74
2022/11/12 04:31:49;;;;;;;35.95;20.12;;;;;;;7.69;88.87;101412.72;4453315;32;33776;-74
2022/11/12 04:34:35;;;;;;;34.42;19.33;;;;;;;8.30;86.16;101398.69;4449434;32;33889;-74
2022/11/12 04:37:23;;;;;;;23.02;13.60;;;;;;;9.40;79.66;101402.84;4452283;32;33953;-74
2022/11/12 04:46:23;;;;;;;23.27;13.65;;;;;;;7.47;85.03;101405.78;4446741;32;33506;-74
2022/11/12 04:49:09;;;;;;;28.17;16.40;;;;;;;6.87;89.77;101408.47;4447073;32;33783;-74
2022/11/12 04:52:03;;;;;;;32.78;17.52;;;;;;;6.36;93.55;101410.06;4452899;32;34259;-74
2022/11/12 04:54:50;;;;;;;33.78;18.58;;;;;;;6.36;94.55;101416.09;4446846;32;35962;-74
2022/11/12 04:57:37;;;;;;;33.40;18.73;;;;;;;6.46;94.11;101403.25;4453455;32;34044;-74
2022/11/12 05:00:23;;;;;;;33.42;19.95;;;;;;;6.42;94.59;101403.75;4419075;32;33930;-74
2022/11/12 05:03:09;;;;;;;37.90;20.95;;;;;;;6.32;95.68;101403.75;4452768;32;33714;-74
2022/11/12 05:06:02;;;;;;;34.90;20.23;;;;;;;6.74;93.69;101410.81;4452953;32;33717;-74
2022/11/12 05:08:48;;;;;;;36.95;21.12;;;;;;;7.04;92.02;101414.19;4445987;32;33971;-74
2022/11/12 05:11:34;;;;;;;35.38;21.42;;;;;;;7.76;88.04;101424.44;4451315;32;34022;-74
2022/11/12 05:14:20;;;;;;;29.33;18.58;;;;;;;8.06;86.45;101415.72;4452415;32;34551;-74
2022/11/12 05:17:06;;;;;;;36.72;18.33;;;;;;;8.36;84.58;101416.34;4452344;32;34482;-74
2022/11/12 05:19:52;;;;;;;26.77;16.35;;;;;;;8.64;83.23;101417.78;4452219;32;33351;-75
2022/11/12 05:22:38;;;;;;;26.42;15.27;;;;;;;8.40;83.64;101414.16;4453270;32;34525;-75
2022/11/12 05:25:34;;;;;;;25.85;15.20;;;;;;;8.31;83.60;101420.25;4452843;32;33981;-74
2022/11/12 05:28:19;;;;;;;25.40;14.10;;;;;;;8.36;83.05;101422.41;4428741;32;33736;-74
2022/11/12 05:31:05;;;;;;;25.60;14.57;;;;;;;8.88;80.34;101429.91;4435729;32;33695;-74
2022/11/12 05:33:51;;;;;;;23.83;14.63;;;;;;;8.72;80.64;101428.72;4436643;32;33663;-74
2022/11/12 05:36:37;;;;;;;25.88;14.43;;;;;;;8.28;81.33;101424.38;4428393;32;34108;-74
2022/11/12 05:39:23;;;;;;;26.30;14.52;;;;;;;8.12;82.50;101433.37;4436552;32;34394;-74
2022/11/12 05:42:09;;;;;;;25.95;16.30;;;;;;;8.04;81.43;101431.06;4435585;32;34674;-74
2022/11/12 05:44:59;;;;;;;26.95;16.30;;;;;;;7.25;84.27;101427.97;4437024;32;33461;-75
2022/11/12 05:47:45;;;;;;;38.17;20.80;;;;;;;6.59;87.85;101427.50;4434660;32;34148;-74
2022/11/12 05:50:30;;;;;;;38.80;21.75;;;;;;;6.31;91.09;101437.94;4434729;32;33995;-74
2022/11/12 05:53:29;;;;;;;36.60;22.35;;;;;;;6.21;91.93;101425.06;4436616;32;33911;-75
2022/11/12 05:56:15;;;;;;;35.42;20.33;;;;;;;6.85;88.69;101432.31;4429977;32;34557;-74
2022/11/12 05:59:02;;;;;;;37.38;20.45;;;;;;;7.41;85.35;101427.56;4432261;32;34818;-74
2022/11/12 06:01:49;;;;;;;27.50;14.82;;;;;;;8.27;81.28;101432.03;4434593;32;34122;-74
2022/11/12 06:04:34;;;;;;;22.80;13.02;;;;;;;8.91;75.75;101443.06;4427046;32;33722;-74
2022/11/12 06:07:20;;;;;;;21.90;13.18;;;;;;;8.59;76.46;101441.44;4436611;32;33798;-74
2022/11/12 06:10:07;;;;;;;24.60;15.55;;;;;;;8.26;77.85;101445.69;4436337;32;34330;-74
2022/11/12 06:12:53;;;;;;;28.42;14.77;;;;;;;7.02;84.71;101457.84;4436430;32;33405;-74
2022/11/12 06:15:40;;;;;;;21.67;13.30;;;;;;;7.16;85.77;101458.13;4436824;32;33886;-74
2022/11/12 06:18:26;;;;;;;27.17;13.88;;;;;;;8.31;78.47;101452.12;4439088;32;34557;-74
2022/11/12 06:21:18;;;;;;;24.42;13.38;;;;;;;7.38;82.42;101456.59;4437164;32;34955;-74
2022/11/12 06:24:04;;;;;;;25.27;13.85;;;;;;;7.93;80.60;101460.25;4436625;32;33676;-74
2022/11/12 06:26:50;;;;;;;22.17;13.95;;;;;;;6.60;86.97;101463.66;4439994;32;35140;-74
2022/11/12 06:29:37;;;;;;;20.65;12.35;;;;;;;6.77;86.48;101477.13;4451567;32;33633;-74
2022/11/12 06:32:23;;;;;;;22.95;13.62;;;;;;;6.85;86.08;101481.25;4451499;32;33996;-74
2022/11/12 06:35:09;;;;;;;24.55;13.95;;;;;;;6.58;88.32;101484.91;4451750;32;34298;-74
2022/11/12 06:37:55;;;;;;;25.00;15.25;;;;;;;6.41;88.45;101486.00;4437396;32;33560;-74
2022/11/12 06:40:41;;;;;;;22.40;13.32;;;;;;;6.11;90.78;101490.22;4451261;32;35269;-74
2022/11/12 06:43:29;;;;;;;22.05;13.65;;;;;;;6.48;89.47;101486.66;4452034;32;34226;-74
2022/11/12 06:46:16;;;;;;;21.98;13.68;;;;;;;6.63;89.00;101499.09;4453462;32;34546;-74
2022/11/12 06:49:02;;;;;;;27.83;15.20;;;;;;;6.98;87.35;101498.69;4451669;32;33924;-74
2022/11/12 06:51:51;;;;;;;26.62;16.77;;;;;;;6.96;87.00;101501.13;4452596;32;33559;-74
2022/11/12 06:54:37;;;;;;;25.08;14.38;;;;;;;6.71;88.33;101503.25;4452412;32;33866;-74
2022/11/12 06:57:23;;;;;;;24.02;14.07;;;;;;;6.96;87.84;101505.38;4453719;32;34138;-74
2022/11/12 07:00:10;;;;;;;23.65;13.60;;;;;;;7.04;87.19;101500.09;4447967;32;34204;-74
2022/11/12 07:02:56;;;;;;;22.05;13.20;;;;;;;7.11;87.13;101493.81;4450075;32;34604;-74
2022/11/12 07:05:42;;;;;;;26.37;14.35;;;;;;;7.32;85.66;101491.25;4448896;32;33917;-74
2022/11/12 07:08:28;;;;;;;23.62;15.55;;;;;;;7.09;86.75;101493.69;4436680;32;34000;-74
2022/11/12 07:11:15;;;;;;;24.98;16.02;;;;;;;7.60;85.12;101499.62;4446599;32;32536;-74
2022/11/12 07:14:05;;;;;;;24.40;14.40;;;;;;;8.32;81.39;101496.91;4446893;32;34627;-74
2022/11/12 07:16:51;;;;;;;24.08;15.30;;;;;;;8.79;79.68;101497.28;4450568;32;34822;-74
2022/11/12 07:19:37;;;;;;;24.85;14.87;;;;;;;9.01;78.37;101510.19;4456253;32;33717;-74
2022/11/12 07:22:22;;;;;;;24.73;14.52;;;;;;;9.06;78.19;101521.81;4447087;32;33723;-74
2022/11/12 07:25:08;;;;;;;23.52;14.65;;;;;;;9.05;78.46;101522.56;4444927;32;34426;-74
2022/11/12 07:27:54;;;;;;;21.92;13.35;;;;;;;9.70;75.43;101522.38;4456351;32;34133;-74
2022/11/12 07:30:40;;;;;;;23.10;13.10;;;;;;;9.58;75.46;101512.91;4456006;32;33740;-75
2022/11/12 07:33:26;;;;;;;20.62;12.48;;;;;;;8.82;79.50;101508.75;4453373;32;34868;-74
2022/11/12 07:36:14;;;;;;;23.38;12.43;;;;;;;9.05;78.60;101507.97;4450210;32;34038;-75
2022/11/12 07:39:00;;;;;;;26.73;14.40;;;;;;;8.14;81.99;101519.56;4450526;32;34066;-74
2022/11/12 07:41:46;;;;;;;27.35;15.85;;;;;;;7.75;85.86;101520.66;4449835;32;32786;-74
2022/11/12 07:44:32;;;;;;;26.33;15.48;;;;;;;7.75;86.32;101510.34;4450571;32;33623;-74
2022/11/12 07:47:17;;;;;;;35.58;16.83;;;;;;;7.75;87.29;101505.19;4449798;32;34207;-74
2022/11/12 07:50:03;;;;;;;38.05;20.17;;;;;;;7.52;89.97;101500.69;4431564;32;34030;-74
2022/11/12 07:52:49;;;;;;;35.65;17.45;;;;;;;7.80;89.36;101498.72;4443568;32;33683;-75
2022/11/12 07:55:35;;;;;;;29.80;15.52;;;;;;;9.09;83.69;101496.19;4445050;32;34135;-75
2022/11/12 07:58:21;;;;;;;30.27;17.02;;;;;;;8.82;84.72;101500.09;4450899;32;34237;-75
2022/11/12 08:01:08;;;;;;;33.40;18.58;;;;;;;8.64;86.15;101505.59;4448420;32;34868;-74
2022/11/12 08:03:54;;;;;;;30.12;18.08;;;;;;;8.81;86.69;101506.94;4451628;32;33707;-74
2022/11/12 08:06:40;;;;;;;29.92;19.23;;;;;;;9.30;85.25;101514.16;4452659;32;34063;-74
2022/11/12 08:09:26;;;;;;;31.58;19.33;;;;;;;8.79;89.27;101508.50;4451671;32;34799;-74
2022/11/12 08:12:12;;;;;;;36.28;21.75;;;;;;;8.92;90.23;101519.81;4450163;32;34960;-75
2022/11/12 08:14:58;;;;;;;33.20;21.02;;;;;;;9.43;88.43;101522.06;4453298;32;34109;-76
2022/11/12 08:17:43;;;;;;;36.72;20.95;;;;;;;9.12;90.78;101529.16;4449884;32;33374;-76
2022/11/12 08:20:29;;;;;;;37.30;21.45;;;;;;;9.35;90.64;101533.50;4451327;32;34492;-76
2022/11/12 08:23:15;;;;;;;33.97;20.37;;;;;;;9.95;88.25;101536.38;4450893;32;34805;-77
2022/11/12 08:26:03;;;;;;;35.28;21.00;;;;;;;10.76;84.75;101538.87;4450897;32;33578;-77
2022/11/12 08:28:49;;;;;;;35.72;20.90;;;;;;;10.49;84.94;101526.50;4446991;32;33948;-78
2022/11/12 08:31:35;;;;;;;38.92;21.75;;;;;;;10.96;82.93;101522.16;4456507;32;33976;-78
2022/11/12 08:34:20;;;;;;;37.70;21.25;;;;;;;11.44;81.32;101528.06;4441736;32;34248;-78
2022/11/12 08:37:07;;;;;;;34.40;20.33;;;;;;;11.69;79.94;101527.16;4438326;32;34378;-76
2022/11/12 08:39:53;;;;;;;35.45;20.62;;;;;;;11.93;78.49;101526.22;4459847;32;33649;-75
2022/11/12 08:42:39;;;;;;;34.83;19.67;;;;;;;12.09;78.20;101527.22;4446255;32;34029;-76
2022/11/12 08:45:26;;;;;;;32.05;19.73;;;;;;;12.22;77.70;101522.06;4448251;32;34878;-76
2022/11/12 08:48:13;;;;;;;35.78;20.42;;;;;;;12.10;78.24;101526.44;4453369;32;33806;-76
2022/11/12 08:51:05;;;;;;;35.30;20.02;;;;;;;12.11;78.57;101529.16;4454983;32;34776;-76
2022/11/12 08:53:51;;;;;;;37.42;20.42;;;;;;;12.20;78.84;101521.94;4448579;32;34893;-76
2022/11/12 08:56:38;;;;;;;37.22;21.08;;;;;;;12.28;78.87;101532.84;4442351;32;33993;-75
2022/11/12 08:59:24;;;;;;;39.05;22.95;;;;;;;12.00;80.07;101532.75;4451583;32;33753;-75
2022/11/12 09:02:11;;;;;;;42.88;24.75;;;;;;;12.35;79.35;101529.84;4449681;32;33711;-75
2022/11/12 09:04:57;;;;;;;40.80;22.70;;;;;;;12.14;79.54;101544.03;4452832;32;33651;-76
2022/11/12 09:07:43;;;;;;;40.55;22.83;;;;;;;12.07;80.25;101549.63;4449941;32;34754;-75
2022/11/12 09:10:35;;;;;;;45.05;26.42;;;;;;;12.20;79.61;101547.03;4450907;32;34203;-75
2022/11/12 09:13:21;;;;;;;40.42;21.85;;;;;;;12.62;77.67;101553.25;4453627;32;34049;-74
2022/11/12 09:16:08;;;;;;;40.75;22.83;;;;;;;12.59;76.69;101553.03;4449953;32;33742;-74
2022/11/12 09:18:53;;;;;;;38.85;22.08;;;;;;;12.53;76.87;101557.84;4433595;32;32714;-74
2022/11/12 09:21:39;;;;;;;35.20;21.40;;;;;;;12.37;78.11;101556.84;4450038;32;34249;-74
2022/11/12 09:24:25;;;;;;;38.78;22.17;;;;;;;12.39;77.19;101559.53;4445353;32;33775;-74
2022/11/12 09:27:11;;;;;;;35.75;21.87;;;;;;;12.23;77.55;101557.66;4435355;32;33799;-73
2022/11/12 09:29:57;;;;;;;35.95;23.00;;;;;;;12.65;75.69;101561.25;4451541;32;34277;-74
2022/11/12 09:32:43;;;;;;;39.15;22.75;;;;;;;12.29;77.93;101571.03;4451206;32;33490;-74
2022/11/12 09:35:30;;;;;;;36.08;21.12;;;;;;;12.69;75.69;101567.53;4452305;32;33713;-74
2022/11/12 09:38:17;;;;;;;36.00;21.87;;;;;;;12.85;75.10;101580.72;4424844;32;33741;-75
2022/11/12 09:41:39;;;;;;;37.63;23.45;;;;;;;13.01;74.22;101590.41;4450985;32;34833;-74
2022/11/12 09:44:25;;;;;;;40.60;21.42;;;;;;;12.61;76.13;101582.63;4393464;32;34484;-75
2022/11/12 09:47:12;;;;;;;36.70;22.00;;;;;;;12.63;76.17;101578.41;4457851;32;33899;-76
2022/11/12 09:50:12;;;;;;;39.63;22.92;;;;;;;12.60;76.43;101578.25;4436331;32;33841;-75
2022/11/12 09:53:15;;;;;;;35.28;21.15;;;;;;;13.08;74.66;101574.38;4435315;32;33987;-73
2022/11/12 09:56:06;;;;;;;44.30;23.77;;;;;;;13.14;74.09;101579.06;4455335;32;34328;-74
2022/11/12 09:58:52;;;;;;;38.40;23.00;;;;;;;13.30;73.32;101583.56;4451568;32;33716;-74
2022/11/12 10:01:58;;;;;;;52.42;27.65;;;;;;;13.25;73.79;101583.25;4463859;32;34289;-73
2022/11/12 10:04:56;;;;;;;;;;;;;;;13.34;73.47;101585.53;4451780;32;33744;-75
2022/11/12 10:07:54;;;;;;;37.15;21.02;;;;;;;13.17;74.05;101581.84;4456190;32;34023;-74
2022/11/12 10:10:43;;;;;;;38.33;21.10;;;;;;;13.35;73.27;101593.47;4450091;32;33769;-74
2022/11/12 10:13:57;;;;;;;36.63;21.17;;;;;;;13.70;72.08;101599.03;4436646;32;34643;-74
2022/11/12 10:17:10;;;;;;;36.90;22.62;;;;;;;13.83;71.93;101598.97;4455633;32;34670;-74
2022/11/12 10:20:10;;;;;;;33.45;21.45;;;;;;;13.61;72.18;101596.75;4444638;32;33933;-73
2022/11/12 10:23:14;;;;;;;35.97;21.20;;;;;;;14.17;69.82;101595.75;4436692;32;34016;-74
2022/11/12 10:26:05;;;;;;;38.42;21.33;;;;;;;14.02;70.89;101600.06;4442703;32;34613;-73
2022/11/12 10:29:09;;;;;;;35.83;21.80;;;;;;;14.07;71.82;101583.91;4426053;32;34236;-73
2022/11/12 10:31:55;;;;;;;56.55;28.33;;;;;;;14.59;71.04;101583.44;4452932;32;34558;-73
2022/11/12 10:34:41;;;;;;;38.70;23.17;;;;;;;14.93;69.28;101577.50;4450797;32;34845;-73
2022/11/12 10:37:54;;;;;;;48.85;29.65;;;;;;;14.96;68.89;101572.47;4451720;32;34444;-73
2022/11/12 10:40:41;;;;;;;38.13;22.48;;;;;;;15.25;67.75;101574.06;4434613;32;33917;-74
2022/11/12 10:43:27;;;;;;;41.60;22.37;;;;;;;15.50;67.59;101573.66;4431388;32;33835;-74
2022/11/12 10:46:21;;;;;;;39.90;23.73;;;;;;;15.49;66.63;101577.09;4453448;32;33760;-73
2022/11/12 10:49:13;;;;;;;35.55;19.25;;;;;;;15.46;65.73;101570.81;4442277;32;34642;-73
2022/11/12 10:51:59;;;;;;;27.33;18.17;;;;;;;15.93;64.25;101559.34;4454235;32;34776;-73
2022/11/12 10:54:45;;;;;;;26.27;17.42;;;;;;;16.23;62.71;101554.78;4454283;32;33556;-72
2022/11/12 10:57:38;;;;;;;29.70;18.52;;;;;;;16.31;61.80;101550.84;4450851;32;33549;-73
2022/11/12 11:00:24;;;;;;;34.17;19.92;;;;;;;16.01;62.84;101550.22;4453125;32;34613;-73
2022/11/12 11:03:21;;;;;;;28.65;17.45;;;;;;;15.91;63.21;101553.16;4448349;32;34715;-73
2022/11/12 11:06:15;;;;;;;28.98;17.35;;;;;;;16.25;61.80;101550.53;4447921;32;33925;-73
2022/11/12 11:09:19;;;;;;;28.63;17.60;;;;;;;16.24;61.35;101556.56;4453749;32;34621;-73
2022/11/12 11:12:21;;;;;;;28.85;17.77;;;;;;;16.14;61.45;101551.72;4453967;32;34107;-73
2022/11/12 11:15:19;;;;;;;27.08;18.25;;;;;;;16.32;60.74;101549.09;4453342;32;33573;-73
2022/11/12 11:18:10;;;;;;;34.88;21.98;;;;;;;16.27;61.30;101541.03;4429520;32;33651;-73
2022/11/12 11:21:12;;;;;;;30.92;20.58;;;;;;;16.28;61.43;101539.31;4454408;32;33874;-72
2022/11/12 11:24:09;;;;;;;29.87;18.60;;;;;;;16.96;59.41;101535.66;4440862;32;34049;-73
2022/11/12 11:26:55;;;;;;;31.90;17.85;;;;;;;16.82;59.90;101527.12;4430053;32;34260;-73
2022/11/12 11:30:14;;;;;;;28.98;16.85;;;;;;;17.19;58.24;101528.84;4453941;32;33832;-74
2022/11/12 11:33:30;;;;;;;27.50;17.48;;;;;;;17.09;58.56;101524.94;4447024;32;34732;-74
2022/11/12 11:36:22;;;;;;;32.45;17.65;;;;;;;16.98;58.42;101538.31;4430249;32;33990;-74
2022/11/12 11:39:24;;;;;;;27.10;17.33;;;;;;;17.22;58.31;101528.09;4432071;32;34824;-74
2022/11/12 11:42:26;;;;;;;24.08;16.37;;;;;;;17.17;58.37;101534.84;4429885;32;34522;-75
2022/11/12 11:45:22;;;;;;;28.75;17.08;;;;;;;17.44;57.85;101535.19;4431375;32;34627;-73
2022/11/12 11:48:33;;;;;;;28.95;16.92;;;;;;;17.47;56.98;101538.84;4433171;32;33528;-74
2022/11/12 11:51:35;;;;;;;29.02;17.58;;;;;;;17.53;57.47;101534.72;4452095;32;34462;-74
2022/11/12 11:54:44;;;;;;;28.62;18.80;;;;;;;17.76;57.34;101527.84;4442442;32;34593;-73
2022/11/12 11:57:54;;;;;;;28.90;18.85;;;;;;;18.16;55.82;101513.84;4438790;32;33878;-75
2022/11/12 12:00:45;;;;;;;29.87;19.05;;;;;;;18.18;55.91;101513.06;4452569;32;34066;-75
2022/11/12 12:03:47;;;;;;;29.33;17.62;;;;;;;17.99;56.45;101511.41;4430062;32;34887;-74
2022/11/12 12:06:47;;;;;;;30.25;18.25;;;;;;;18.21;55.68;101507.94;4446663;32;34356;-74
2022/11/12 12:09:52;;;;;;;29.37;19.02;;;;;;;18.38;54.98;101499.84;4441238;32;35266;-75
2022/11/12 12:13:00;;;;;;;30.37;18.73;;;;;;;18.16;56.23;101504.25;4444671;32;33944;-74
2022/11/12 12:15:55;;;;;;;28.67;18.23;;;;;;;18.16;55.31;101504.25;4439253;32;34805;-74
2022/11/12 12:18:53;;;;;;;28.52;18.48;;;;;;;18.36;55.17;101499.78;4450822;32;33445;-74
2022/11/12 12:21:43;;;;;;;25.30;16.10;;;;;;;18.44;54.30;101500.09;4451546;32;32615;-75
2022/11/12 12:24:34;;;;;;;33.75;20.50;;;;;;;18.05;55.21;101500.28;4428835;32;32215;-74
2022/11/12 12:27:22;;;;;;;31.90;18.77;;;;;;;17.83;55.35;101494.09;4435367;32;34878;-75
2022/11/12 12:30:20;;;;;;;32.88;20.45;;;;;;;17.66;56.15;101489.88;4435558;32;33753;-75
2022/11/12 12:33:22;;;;;;;34.72;20.12;;;;;;;17.70;57.21;101476.06;4453444;32;33920;-75
2022/11/12 12:36:14;;;;;;;29.87;19.35;;;;;;;17.88;56.26;101481.22;4429324;32;33481;-75
2022/11/12 12:39:21;;;;;;;33.20;19.52;;;;;;;17.48;56.58;101484.69;4452635;32;34962;-75
2022/11/12 12:42:27;;;;;;;30.40;18.98;;;;;;;17.49;57.13;101486.50;4436045;32;32639;-74
2022/11/12 12:45:31;;;;;;;30.67;19.75;;;;;;;17.58;56.80;101484.28;4430897;32;34686;-74
2022/11/12 12:48:29;;;;;;;35.17;17.45;;;;;;;17.76;56.51;101481.56;4436131;32;32180;-75
2022/11/12 12:51:16;;;;;;;32.22;19.80;;;;;;;17.40;60.65;101489.62;4453229;32;34691;-75
2022/11/12 12:54:02;;;;;;;28.55;18.30;;;;;;;17.65;58.37;101483.75;4434289;32;34051;-75
2022/11/12 12:58:17;;;;;;;35.13;18.92;;;;;;;18.31;55.65;101480.38;4520197;31;169793;-75
2022/11/12 13:01:09;;;;;;;31.25;18.95;;;;;;;18.31;55.65;101480.38;4496809;31;35008;-75
2022/11/12 13:03:58;;;;;;;31.02;19.45;;;;;;;17.63;56.84;101487.09;4509857;31;34236;-74
2022/11/12 13:06:44;;;;;;;28.10;18.73;;;;;;;17.83;56.76;101477.50;4486328;31;34043;-73
2022/11/12 13:09:32;;;;;;;38.58;24.10;;;;;;;17.93;56.01;101484.94;4497847;31;34425;-72
2022/11/12 13:15:14;;;;;;;31.27;22.02;;;;;;;17.60;57.12;101490.50;4489881;31;33893;-74
2022/11/12 13:18:00;;;;;;;32.15;20.48;;;;;;;17.48;57.72;101483.00;4498981;31;34067;-75
2022/11/12 13:21:07;;;;;;;32.42;19.45;;;;;;;17.55;57.00;101478.03;4494200;31;34179;-74